createdAt,value
2018-09-28T00:00:45.963Z,3.75
2018-09-28T00:03:14.027Z,3.87
2018-09-28T00:05:42.197Z,3.70
2018-09-28T00:08:10.583Z,3.40
2018-09-28T00:10:38.756Z,3.80
2018-09-28T00:13:06.843Z,3.85
2018-09-28T00:15:35.510Z,3.70
2018-09-28T00:18:03.696Z,3.72
2018-09-28T00:20:31.927Z,3.87
2018-09-28T00:23:00.073Z,3.98
2018-09-28T00:25:28.209Z,3.98
2018-09-28T00:27:56.935Z,3.45
2018-09-28T00:30:25.065Z,3.85
2018-09-28T00:32:53.196Z,3.62
2018-09-28T00:35:21.533Z,3.75
2018-09-28T00:37:49.752Z,3.80
2018-09-28T00:40:17.873Z,3.92
2018-09-28T00:42:46.124Z,3.62
2018-09-28T00:45:14.200Z,4.12
2018-09-28T00:47:42.568Z,3.80
2018-09-28T00:50:10.763Z,4.03
2018-09-28T00:52:39.012Z,3.98
2018-09-28T00:55:07.112Z,4.40
2018-09-28T00:57:35.977Z,4.10
2018-09-28T01:00:05.036Z,4.20
2018-09-28T01:02:33.195Z,4.23
2018-09-28T01:05:01.284Z,3.70
2018-09-28T01:07:29.593Z,4.08
2018-09-28T01:09:57.871Z,4.13
2018-09-28T01:12:26.038Z,3.98
2018-09-28T01:14:54.166Z,4.47
2018-09-28T01:17:22.916Z,4.20
2018-09-28T01:19:51.055Z,4.17
2018-09-28T01:22:19.248Z,4.53
2018-09-28T01:24:47.527Z,5.20
2018-09-28T01:27:15.711Z,5.22
2018-09-28T01:29:43.870Z,4.67
2018-09-28T01:32:11.975Z,5.42
2018-09-28T01:34:40.651Z,5.08
2018-09-28T01:37:08.755Z,6.17
2018-09-28T01:39:37.008Z,6.40
2018-09-28T01:42:05.307Z,6.63
2018-09-28T01:44:33.373Z,6.20
2018-09-28T01:47:01.713Z,6.92
2018-09-28T01:49:29.830Z,7.03
2018-09-28T01:51:58.096Z,7.78
2018-09-28T01:54:26.189Z,7.50
2018-09-28T01:56:55.057Z,8.40
2018-09-28T01:59:23.255Z,10.50
2018-09-28T02:01:51.347Z,12.25
2018-09-28T02:04:19.448Z,13.10
2018-09-28T02:06:47.556Z,12.28
2018-09-28T02:09:15.752Z,13.50
2018-09-28T02:11:43.976Z,13.43
2018-09-28T02:14:12.679Z,13.58
2018-09-28T02:16:40.764Z,13.28
2018-09-28T02:19:08.996Z,13.75
2018-09-28T02:21:37.492Z,14.93
2018-09-28T02:24:05.908Z,14.78
2018-09-28T02:26:34.404Z,14.80
2018-09-28T02:29:02.785Z,15.53
2018-09-28T02:31:31.336Z,15.78
2018-09-28T02:34:00.086Z,15.80
2018-09-28T02:36:28.736Z,15.63
2018-09-28T02:38:57.535Z,15.93
2018-09-28T02:41:26.271Z,15.98
2018-09-28T02:43:54.627Z,17.02
2018-09-28T02:46:23.296Z,16.70
2018-09-28T02:48:52.111Z,16.35
2018-09-28T02:51:20.572Z,16.17
2018-09-28T02:53:48.967Z,17.05
2018-09-28T02:56:17.725Z,15.75
2018-09-28T02:58:46.101Z,16.30
2018-09-28T03:01:14.596Z,16.32
2018-09-28T03:03:43.004Z,17.00
2018-09-28T03:06:11.701Z,15.98
2018-09-28T03:08:40.077Z,15.88
2018-09-28T03:11:08.760Z,16.30
2018-09-28T03:13:37.364Z,16.75
2018-09-28T03:16:05.796Z,16.80
2018-09-28T03:18:34.273Z,16.02
2018-09-28T03:21:02.643Z,16.73
2018-09-28T03:23:31.040Z,16.07
2018-09-28T03:25:59.445Z,16.35
2018-09-28T03:28:27.884Z,16.90
2018-09-28T03:30:56.312Z,16.87
2018-09-28T03:33:25.553Z,19.30
2018-09-28T03:35:54.005Z,18.17
2018-09-28T03:38:22.389Z,19.75
2018-09-28T03:40:50.844Z,18.87
2018-09-28T03:43:19.496Z,18.65
2018-09-28T03:45:47.988Z,20.10
2018-09-28T03:48:17.260Z,20.95
2018-09-28T03:50:46.933Z,21.33
2018-09-28T03:53:15.358Z,21.80
2018-09-28T03:55:43.853Z,22.65
2018-09-28T03:58:12.414Z,22.93
2018-09-28T04:00:41.376Z,23.60
2018-09-28T04:03:11.677Z,23.67
2018-09-28T04:05:40.525Z,24.47
2018-09-28T04:08:09.141Z,24.82
2018-09-28T04:10:37.672Z,24.37
2018-09-28T04:13:06.290Z,24.40
2018-09-28T04:15:34.849Z,25.88
2018-09-28T04:18:03.365Z,25.55
2018-09-28T04:20:31.868Z,25.82
2018-09-28T04:23:00.256Z,24.40
2018-09-28T04:25:28.856Z,25.37
2018-09-28T04:27:57.467Z,25.85
2018-09-28T04:30:26.736Z,26.07
2018-09-28T04:32:55.123Z,25.65
2018-09-28T04:35:23.629Z,25.72
2018-09-28T04:37:51.999Z,25.37
2018-09-28T04:40:20.917Z,25.55
2018-09-28T04:42:49.392Z,26.02
2018-09-28T04:45:18.100Z,27.77
2018-09-28T04:47:46.596Z,27.48
2018-09-28T04:50:15.035Z,26.12
2018-09-28T04:52:43.786Z,26.90
2018-09-28T04:55:13.009Z,26.95
2018-09-28T04:57:42.284Z,27.13
2018-09-28T05:00:11.461Z,27.60
2018-09-28T05:02:39.980Z,27.65
2018-09-28T05:05:08.617Z,26.68
2018-09-28T05:07:37.247Z,27.40
2018-09-28T05:10:05.796Z,27.82
2018-09-28T05:12:34.581Z,28.00
2018-09-28T05:15:03.801Z,27.85
2018-09-28T05:17:33.220Z,28.32
2018-09-28T05:20:01.651Z,27.77
2018-09-28T05:22:30.224Z,27.15
2018-09-28T05:24:58.807Z,27.77
2018-09-28T05:27:27.301Z,26.87
2018-09-28T05:29:56.328Z,28.12
2018-09-28T05:32:24.939Z,31.23
2018-09-28T05:34:53.768Z,25.68
2018-09-28T05:37:22.334Z,23.98
2018-09-28T05:39:51.429Z,22.13
2018-09-28T05:42:20.554Z,18.35
2018-09-28T05:44:49.016Z,17.87
2018-09-28T05:47:17.511Z,17.55
2018-09-28T05:49:45.904Z,15.40
2018-09-28T05:52:14.425Z,14.73
2018-09-28T05:54:42.890Z,15.55
2018-09-28T05:57:11.367Z,13.50
2018-09-28T05:59:45.057Z,12.75
2018-09-28T06:02:18.744Z,10.98
2018-09-28T06:04:53.185Z,12.03
2018-09-28T06:07:21.632Z,10.75
2018-09-28T06:09:50.361Z,10.32
2018-09-28T06:12:19.209Z,9.55
2018-09-28T06:14:47.792Z,8.55
2018-09-28T06:17:16.275Z,8.08
2018-09-28T06:19:44.727Z,7.65
2018-09-28T06:22:13.121Z,6.90
2018-09-28T06:24:42.189Z,6.33
2018-09-28T06:27:10.876Z,6.05
2018-09-28T06:29:39.333Z,4.80
2018-09-28T06:32:07.724Z,5.03
2018-09-28T06:34:36.820Z,5.17
2018-09-28T06:37:05.264Z,4.15
2018-09-28T06:39:34.203Z,4.12
2018-09-28T06:42:02.827Z,3.62
2018-09-28T06:44:31.262Z,3.98
2018-09-28T06:46:59.609Z,3.25
2018-09-28T06:49:28.085Z,3.77
2018-09-28T06:51:56.710Z,2.80
2018-09-28T06:54:25.277Z,2.72
2018-09-28T06:56:53.823Z,2.83
2018-09-28T06:59:22.448Z,2.67
2018-09-28T07:01:51.005Z,2.08
2018-09-28T07:04:19.476Z,2.58
2018-09-28T07:06:47.867Z,2.17
2018-09-28T07:09:16.296Z,2.67
2018-09-28T07:11:45.251Z,2.60
2018-09-28T07:14:13.743Z,2.67
2018-09-28T07:16:42.245Z,2.62
2018-09-28T07:19:10.603Z,2.90
2018-09-28T07:21:39.896Z,3.00
2018-09-28T07:24:08.616Z,2.70
2018-09-28T07:26:37.198Z,2.85
2018-09-28T07:29:06.964Z,2.33
2018-09-28T07:31:36.652Z,2.85
2018-09-28T07:34:05.062Z,2.92
2018-09-28T07:36:33.778Z,2.30
2018-09-28T07:39:02.196Z,2.50
2018-09-28T07:41:30.748Z,2.80
2018-09-28T07:43:59.145Z,2.17
2018-09-28T07:46:27.607Z,3.77
2018-09-28T07:48:56.073Z,2.75
2018-09-28T07:51:24.512Z,2.83
2018-09-28T07:53:52.898Z,2.65
2018-09-28T07:56:21.452Z,2.83
2018-09-28T07:58:50.224Z,3.02
2018-09-28T08:01:18.653Z,2.60
2018-09-28T08:03:47.173Z,2.80
2018-09-28T08:06:15.849Z,2.47
2018-09-28T08:08:44.264Z,2.80
2018-09-28T08:11:12.845Z,2.70
2018-09-28T08:13:41.665Z,2.50
2018-09-28T08:16:10.065Z,2.77
2018-09-28T08:18:38.781Z,3.08
2018-09-28T08:21:07.342Z,6.92
2018-09-28T08:23:35.713Z,2.45
2018-09-28T08:26:04.464Z,4.37
2018-09-28T08:28:33.003Z,3.00
2018-09-28T08:31:01.504Z,2.65
2018-09-28T08:33:30.090Z,2.58
2018-09-28T08:35:58.732Z,2.83
2018-09-28T08:38:28.111Z,2.75
2018-09-28T08:40:56.572Z,2.65
2018-09-28T08:43:25.305Z,2.12
2018-09-28T08:45:53.752Z,2.40
2018-09-28T08:48:22.159Z,3.17
2018-09-28T08:50:50.796Z,3.20
2018-09-28T08:53:19.238Z,2.33
2018-09-28T08:55:47.675Z,3.00
2018-09-28T08:58:16.072Z,2.67
2018-09-28T09:00:44.857Z,2.10
2018-09-28T09:03:13.392Z,2.33
2018-09-28T09:05:41.840Z,2.80
2018-09-28T09:08:10.597Z,2.30
2018-09-28T09:10:39.078Z,2.92
2018-09-28T09:13:07.628Z,2.30
2018-09-28T09:15:36.280Z,2.90
2018-09-28T09:18:04.634Z,2.77
2018-09-28T09:20:32.634Z,2.72
2018-09-28T09:23:01.348Z,2.52
2018-09-28T09:25:29.500Z,2.35
2018-09-28T09:27:57.671Z,2.52
2018-09-28T09:30:25.748Z,2.35
2018-09-28T09:32:53.988Z,2.30
2018-09-28T09:35:22.163Z,2.80
2018-09-28T09:37:50.335Z,2.40
2018-09-28T09:40:19.184Z,2.37
2018-09-28T09:42:47.421Z,2.65
2018-09-28T09:45:15.427Z,2.47
2018-09-28T09:47:43.535Z,2.77
2018-09-28T09:50:11.720Z,2.92
2018-09-28T09:52:40.205Z,2.87
2018-09-28T09:55:08.571Z,2.90
2018-09-28T09:57:36.696Z,2.80
2018-09-28T10:00:04.904Z,2.47
2018-09-28T10:02:38.635Z,2.42
2018-09-28T10:05:07.387Z,2.80
2018-09-28T10:07:36.083Z,2.30
2018-09-28T10:10:04.955Z,2.58
2018-09-28T10:12:33.211Z,2.70
2018-09-28T10:15:01.281Z,2.30
2018-09-28T10:17:29.450Z,2.40
2018-09-28T10:19:57.644Z,2.30
2018-09-28T10:25:00.662Z,2.80
2018-09-28T10:27:29.327Z,2.70
2018-09-28T10:29:57.500Z,3.40
2018-09-28T10:32:25.658Z,3.10
2018-09-28T10:34:53.911Z,2.62
2018-09-28T10:37:22.100Z,1.85
2018-09-28T10:39:50.600Z,2.15
2018-09-28T10:42:18.751Z,2.47
2018-09-28T10:44:47.040Z,2.30
2018-09-28T10:47:15.280Z,2.10
2018-09-28T10:49:43.366Z,2.22
2018-09-28T10:52:11.959Z,2.20
2018-09-28T10:54:39.935Z,2.33
2018-09-28T10:57:08.064Z,2.60
2018-09-28T10:59:36.196Z,2.40
2018-09-28T11:02:04.405Z,2.72
2018-09-28T11:04:32.537Z,2.30
2018-09-28T11:07:00.660Z,2.45
2018-09-28T11:09:28.786Z,2.30
2018-09-28T11:11:56.825Z,1.98
2018-09-28T11:14:24.979Z,2.08
2018-09-28T11:16:53.333Z,2.37
2018-09-28T11:19:21.435Z,2.02
2018-09-28T11:21:49.611Z,2.00
2018-09-28T11:24:17.821Z,2.25
2018-09-28T11:26:46.195Z,2.20
2018-09-28T11:29:14.600Z,1.92
2018-09-28T11:31:42.728Z,2.20
2018-09-28T11:34:11.003Z,1.87
2018-09-28T11:36:39.339Z,1.87
2018-09-28T11:39:08.465Z,1.98
2018-09-28T11:41:37.080Z,2.20
2018-09-28T11:44:05.356Z,1.90
2018-09-28T11:46:34.232Z,2.08
2018-09-28T11:49:02.390Z,1.90
2018-09-28T11:51:30.741Z,1.70
2018-09-28T11:53:58.887Z,1.95
2018-09-28T11:56:27.028Z,2.20
2018-09-28T11:58:55.332Z,1.72
2018-09-28T12:01:23.556Z,1.70
2018-09-28T12:03:51.813Z,1.98
2018-09-28T12:06:20.027Z,1.87
2018-09-28T12:08:48.120Z,1.90
2018-09-28T12:11:16.876Z,2.08
2018-09-28T12:13:44.979Z,2.20
2018-09-28T12:16:13.113Z,1.70
2018-09-28T12:18:41.360Z,1.75
2018-09-28T12:21:09.444Z,1.70
2018-09-28T12:23:37.902Z,1.82
2018-09-28T12:26:05.999Z,1.90
2018-09-28T12:28:35.081Z,2.20
2018-09-28T12:31:03.285Z,1.95
2018-09-28T12:33:31.393Z,1.45
2018-09-28T12:35:59.495Z,1.52
2018-09-28T12:38:27.588Z,1.65
2018-09-28T12:40:55.769Z,1.95
2018-09-28T12:43:24.748Z,1.77
2018-09-28T12:45:53.113Z,2.10
2018-09-28T12:48:21.226Z,1.40
2018-09-28T12:50:49.449Z,1.92
2018-09-28T12:53:17.711Z,1.37
2018-09-28T12:55:45.884Z,1.98
2018-09-28T12:58:13.976Z,1.60
2018-09-28T13:00:42.395Z,1.60
2018-09-28T13:03:10.527Z,1.70
2018-09-28T13:05:38.648Z,1.98
2018-09-28T13:08:06.847Z,1.87
2018-09-28T13:10:34.959Z,1.85
2018-09-28T13:13:03.048Z,1.30
2018-09-28T13:15:31.136Z,1.60
2018-09-28T13:17:59.221Z,1.57
2018-09-28T13:20:27.855Z,1.57
2018-09-28T13:22:56.467Z,1.30
2018-09-28T13:25:25.175Z,1.40
2018-09-28T13:27:53.272Z,1.02
2018-09-28T13:30:21.430Z,1.40
2018-09-28T13:32:49.677Z,1.27
2018-09-28T13:35:17.816Z,1.47
2018-09-28T13:37:45.955Z,1.40
2018-09-28T13:40:14.713Z,2.08
2018-09-28T13:42:42.836Z,1.65
2018-09-28T13:45:11.094Z,1.50
2018-09-28T13:47:39.733Z,1.47
2018-09-28T13:50:08.225Z,1.25
2018-09-28T13:52:36.477Z,1.50
2018-09-28T13:55:04.969Z,1.27
2018-09-28T13:57:33.244Z,1.42
2018-09-28T14:00:01.325Z,1.40
2018-09-28T14:02:29.816Z,1.30
2018-09-28T14:04:57.893Z,1.32
2018-09-28T14:07:26.076Z,1.20
2018-09-28T14:09:54.383Z,1.62
2018-09-28T14:12:22.831Z,1.45
2018-09-28T14:14:51.071Z,1.57
2018-09-28T14:17:19.182Z,2.80
2018-09-28T14:19:47.293Z,1.57
2018-09-28T14:22:15.471Z,1.50
2018-09-28T14:24:43.742Z,1.90
2018-09-28T14:27:11.812Z,1.50
2018-09-28T14:29:40.465Z,1.50
2018-09-28T14:32:08.737Z,1.80
2018-09-28T14:34:37.031Z,1.30
2018-09-28T14:37:05.281Z,1.37
2018-09-28T14:39:33.369Z,1.42
2018-09-28T14:42:01.703Z,1.75
2018-09-28T14:44:29.739Z,1.37
2018-09-28T14:46:58.061Z,1.40
2018-09-28T14:49:26.309Z,1.60
2018-09-28T14:51:55.428Z,1.65
2018-09-28T14:54:23.821Z,1.60
2018-09-28T14:56:51.992Z,4.67
2018-09-28T14:59:20.082Z,1.90
2018-09-28T15:01:48.327Z,1.50
2018-09-28T15:04:16.659Z,1.52
2018-09-28T15:06:45.672Z,1.40
2018-09-28T15:09:14.488Z,1.32
2018-09-28T15:11:42.576Z,1.30
2018-09-28T15:14:10.963Z,1.50
2018-09-28T15:16:39.572Z,1.50
2018-09-28T15:19:07.882Z,1.42
2018-09-28T15:21:36.289Z,1.50
2018-09-28T15:24:04.525Z,1.52
2018-09-28T15:26:32.701Z,1.45
2018-09-28T15:29:01.287Z,1.90
2018-09-28T15:31:29.372Z,1.87
2018-09-28T15:33:57.567Z,1.47
2018-09-28T15:36:25.831Z,1.37
2018-09-28T15:38:54.029Z,1.65
2018-09-28T15:41:22.788Z,1.37
2018-09-28T15:43:50.887Z,1.70
2018-09-28T15:46:19.023Z,1.80
2018-09-28T15:48:47.251Z,1.20
2018-09-28T15:51:15.347Z,1.35
2018-09-28T15:53:43.672Z,1.12
2018-09-28T15:56:11.790Z,1.20
2018-09-28T15:58:40.040Z,1.30
2018-09-28T16:01:08.900Z,1.07
2018-09-28T16:03:37.063Z,1.30
2018-09-28T16:06:05.145Z,1.22
2018-09-28T16:08:33.259Z,1.07
2018-09-28T16:11:01.361Z,4.33
2018-09-28T16:13:29.683Z,2.87
2018-09-28T16:15:57.856Z,1.22
2018-09-28T16:18:25.970Z,1.45
2018-09-28T16:20:54.167Z,1.37
2018-09-28T16:23:22.261Z,1.25
2018-09-28T16:25:51.086Z,1.27
2018-09-28T16:28:19.235Z,1.55
2018-09-28T16:33:22.199Z,4.33
2018-09-28T16:35:51.161Z,2.42
2018-09-28T16:38:20.400Z,2.17
2018-09-28T16:40:48.534Z,2.00
2018-09-28T16:43:16.632Z,2.00
2018-09-28T16:45:44.757Z,1.60
2018-09-28T16:48:13.076Z,1.95
2018-09-28T16:50:41.249Z,1.35
2018-09-28T16:53:09.361Z,1.32
2018-09-28T16:55:37.657Z,1.70
2018-09-28T16:58:06.040Z,2.02
2018-09-28T17:00:34.247Z,1.90
2018-09-28T17:03:02.626Z,5.92
2018-09-28T17:05:30.775Z,16.57
2018-09-28T17:07:58.968Z,1.90
2018-09-28T17:10:27.227Z,1.55
2018-09-28T17:12:56.828Z,1.65
2018-09-28T17:15:25.160Z,2.12
2018-09-28T17:17:53.448Z,2.10
2018-09-28T17:20:21.600Z,1.92
2018-09-28T17:22:49.676Z,2.30
2018-09-28T17:25:18.696Z,2.15
2018-09-28T17:27:46.860Z,1.70
2018-09-28T17:30:15.201Z,1.82
2018-09-28T17:32:43.379Z,1.92
2018-09-28T17:35:11.563Z,1.95
2018-09-28T17:37:39.948Z,1.90
2018-09-28T17:40:08.068Z,1.80
2018-09-28T17:42:36.379Z,2.08
2018-09-28T17:45:05.464Z,2.20
2018-09-28T17:47:33.716Z,1.80
2018-09-28T17:50:02.107Z,1.90
2018-09-28T17:52:30.296Z,2.35
2018-09-28T17:54:58.517Z,1.60
2018-09-28T17:57:26.624Z,1.95
2018-09-28T17:59:54.743Z,2.87
2018-09-28T18:02:22.860Z,2.10
2018-09-28T18:04:51.020Z,2.25
2018-09-28T18:07:19.826Z,1.90
2018-09-28T18:09:47.931Z,1.95
2018-09-28T18:12:16.081Z,2.75
2018-09-28T18:14:44.656Z,1.87
2018-09-28T18:17:12.854Z,2.25
2018-09-28T18:19:41.048Z,2.17
2018-09-28T18:22:09.232Z,2.00
2018-09-28T18:24:37.583Z,2.60
2018-09-28T18:27:05.833Z,2.25
2018-09-28T18:29:33.895Z,2.25
2018-09-28T18:32:02.001Z,2.40
2018-09-28T18:34:30.249Z,2.10
2018-09-28T18:36:58.869Z,2.22
2018-09-28T18:39:27.083Z,1.90
2018-09-28T18:41:55.255Z,2.00
2018-09-28T18:44:23.424Z,2.20
2018-09-28T18:46:51.599Z,1.95
2018-09-28T18:49:19.833Z,2.47
2018-09-28T18:51:47.946Z,2.47
2018-09-28T18:54:16.186Z,2.45
2018-09-28T18:56:44.429Z,2.10
2018-09-28T18:59:13.281Z,2.20
2018-09-28T19:01:41.464Z,2.15
2018-09-28T19:04:10.524Z,1.80
2018-09-28T19:06:38.940Z,2.00
2018-09-28T19:09:08.085Z,2.17
2018-09-28T19:11:36.179Z,2.58
2018-09-28T19:14:04.463Z,2.08
2018-09-28T19:16:32.860Z,1.92
2018-09-28T19:19:01.462Z,2.02
2018-09-28T19:21:29.625Z,2.00
2018-09-28T19:23:57.717Z,4.50
2018-09-28T19:26:26.675Z,2.40
2018-09-28T19:28:54.920Z,2.15
2018-09-28T19:31:23.077Z,2.20
2018-09-28T19:33:51.511Z,2.62
2018-09-28T19:36:19.679Z,2.35
2018-09-28T19:38:47.820Z,1.93
2018-09-28T19:41:16.060Z,2.00
2018-09-28T19:43:44.252Z,2.12
2018-09-28T19:46:12.379Z,2.20
2018-09-28T19:48:40.514Z,2.47
2018-09-28T19:51:09.342Z,2.00
2018-09-28T19:53:38.380Z,2.33
2018-09-28T19:56:06.569Z,2.10
2018-09-28T19:58:34.736Z,2.10
2018-09-28T20:01:02.828Z,2.13
2018-09-28T20:03:30.931Z,2.20
2018-09-28T20:05:59.058Z,2.20
2018-09-28T20:08:27.324Z,2.02
2018-09-28T20:10:56.037Z,2.50
2018-09-28T20:13:25.175Z,2.45
2018-09-28T20:15:53.768Z,2.10
2018-09-28T20:18:21.911Z,2.30
2018-09-28T20:20:50.036Z,2.05
2018-09-28T20:23:18.188Z,3.77
2018-09-28T20:25:46.306Z,4.80
2018-09-28T20:28:15.162Z,5.28
2018-09-28T20:30:43.263Z,6.92
2018-09-28T20:33:11.343Z,6.70
2018-09-28T20:35:39.468Z,5.87
2018-09-28T20:38:07.642Z,6.05
2018-09-28T20:40:35.780Z,4.10
2018-09-28T20:43:03.919Z,3.60
2018-09-28T20:45:32.783Z,2.52
2018-09-28T20:48:00.874Z,3.17
2018-09-28T20:50:29.216Z,4.23
2018-09-28T20:52:57.318Z,3.30
2018-09-28T20:55:25.509Z,2.93
2018-09-28T20:57:53.612Z,3.17
2018-09-28T21:00:21.895Z,2.90
2018-09-28T21:02:49.988Z,2.50
2018-09-28T21:05:18.141Z,2.60
2018-09-28T21:07:46.460Z,2.40
2018-09-28T21:10:14.611Z,2.60
2018-09-28T21:12:42.711Z,2.80
2018-09-28T21:15:11.001Z,2.60
2018-09-28T21:17:39.145Z,2.80
2018-09-28T21:20:07.268Z,2.62
2018-09-28T21:22:35.398Z,3.90
2018-09-28T21:25:03.593Z,7.28
2018-09-28T21:27:31.748Z,6.28
2018-09-28T21:29:59.841Z,4.13
2018-09-28T21:32:27.989Z,3.08
2018-09-28T21:34:56.103Z,2.47
2018-09-28T21:37:24.371Z,2.37
2018-09-28T21:39:53.013Z,2.60
2018-09-28T21:42:21.256Z,2.45
2018-09-28T21:44:49.339Z,2.30
2018-09-28T21:47:17.699Z,2.60
2018-09-28T21:49:46.634Z,2.77
2018-09-28T21:52:15.355Z,2.80
2018-09-28T21:54:43.507Z,2.83
2018-09-28T21:57:11.611Z,2.60
2018-09-28T21:59:40.144Z,3.20
2018-09-28T22:02:08.333Z,4.80
2018-09-28T22:04:36.717Z,4.23
2018-09-28T22:07:04.768Z,3.77
2018-09-28T22:09:33.148Z,3.07
2018-09-28T22:12:01.253Z,3.17
2018-09-28T22:14:30.017Z,3.52
2018-09-28T22:16:58.152Z,3.27
2018-09-28T22:19:26.489Z,2.67
2018-09-28T22:21:55.648Z,2.40
2018-09-28T22:24:24.080Z,2.20
2018-09-28T22:26:52.677Z,2.80
2018-09-28T22:29:20.873Z,3.00
2018-09-28T22:31:49.172Z,2.43
2018-09-28T22:34:17.415Z,2.00
2018-09-28T22:36:45.510Z,2.40
2018-09-28T22:39:13.722Z,2.40
2018-09-28T22:41:41.896Z,2.00
2018-09-28T22:44:10.015Z,2.60
2018-09-28T22:46:38.632Z,2.40
2018-09-28T22:49:06.744Z,2.73
2018-09-28T22:51:34.832Z,2.67
2018-09-28T22:54:03.126Z,3.05
2018-09-28T22:56:31.464Z,3.30
2018-09-28T22:58:59.676Z,2.67
2018-09-28T23:01:28.074Z,2.40
2018-09-28T23:03:56.328Z,2.17
2018-09-28T23:06:24.604Z,2.27
2018-09-28T23:08:52.881Z,1.80
2018-09-28T23:11:21.109Z,2.07
2018-09-28T23:13:49.271Z,2.43
2018-09-28T23:16:17.420Z,2.37
2018-09-28T23:18:45.804Z,2.15
2018-09-28T23:21:14.000Z,2.70
2018-09-28T23:23:42.135Z,2.97
2018-09-28T23:26:10.224Z,2.73
2018-09-28T23:28:38.772Z,1.87
2018-09-28T23:31:07.008Z,2.80
2018-09-28T23:33:35.124Z,2.30
2018-09-28T23:36:03.303Z,2.20
2018-09-28T23:38:31.392Z,2.50
2018-09-28T23:40:59.468Z,2.37
2018-09-28T23:43:27.564Z,1.87
2018-09-28T23:45:55.746Z,1.97
2018-09-28T23:48:24.049Z,2.47
2018-09-28T23:50:53.200Z,2.10
2018-09-28T23:53:21.431Z,1.70
2018-09-28T23:55:50.207Z,2.40
2018-09-28T23:58:18.396Z,2.00
